sensor_id;sensor_type;location;lat;lon;timestamp;pressure;altitude;pressure_sealevel;temperature;humidity
4570;BME280;2297;51.442;6.996;2024-01-30T00:01:50;101406.53;;;12.53;45.01
4570;BME280;2297;51.442;6.996;2024-01-30T00:04:17;101409.28;;;12.43;45.13
4570;BME280;2297;51.442;6.996;2024-01-30T00:06:43;101397.91;;;12.35;45.39
4570;BME280;2297;51.442;6.996;2024-01-30T00:09:10;101405.88;;;12.34;45.53
4570;BME280;2297;51.442;6.996;2024-01-30T00:11:37;101410.22;;;12.41;45.34
4570;BME280;2297;51.442;6.996;2024-01-30T00:14:04;101405.72;;;12.47;45.32
4570;BME280;2297;51.442;6.996;2024-01-30T00:16:31;101406.75;;;12.36;45.43
4570;BME280;2297;51.442;6.996;2024-01-30T00:18:59;101400.53;;;12.38;45.16
4570;BME280;2297;51.442;6.996;2024-01-30T00:21:27;101401.56;;;12.26;45.30
4570;BME280;2297;51.442;6.996;2024-01-30T00:23:54;101397.88;;;12.38;45.24
4570;BME280;2297;51.442;6.996;2024-01-30T00:26:20;101398.88;;;12.25;45.74
4570;BME280;2297;51.442;6.996;2024-01-30T00:28:47;101396.19;;;12.31;45.33
4570;BME280;2297;51.442;6.996;2024-01-30T00:31:13;101390.09;;;12.23;45.53
4570;BME280;2297;51.442;6.996;2024-01-30T00:33:40;101388.25;;;12.31;45.18
4570;BME280;2297;51.442;6.996;2024-01-30T00:36:09;101387.22;;;12.43;44.98
4570;BME280;2297;51.442;6.996;2024-01-30T00:38:36;101388.97;;;12.45;45.00
4570;BME280;2297;51.442;6.996;2024-01-30T00:41:04;101380.16;;;12.42;44.94
4570;BME280;2297;51.442;6.996;2024-01-30T00:43:30;101385.41;;;12.48;44.90
4570;BME280;2297;51.442;6.996;2024-01-30T00:45:57;101386.25;;;12.48;44.66
4570;BME280;2297;51.442;6.996;2024-01-30T00:48:24;101377.44;;;12.50;44.76
4570;BME280;2297;51.442;6.996;2024-01-30T00:50:51;101386.25;;;12.48;44.84
4570;BME280;2297;51.442;6.996;2024-01-30T00:53:19;101384.50;;;12.51;44.85
4570;BME280;2297;51.442;6.996;2024-01-30T00:55:45;101392.47;;;12.46;44.95
4570;BME280;2297;51.442;6.996;2024-01-30T00:58:12;101378.56;;;12.27;45.22
4570;BME280;2297;51.442;6.996;2024-01-30T01:00:39;101383.00;;;12.25;45.21
4570;BME280;2297;51.442;6.996;2024-01-30T01:03:06;101380.44;;;12.17;45.19
4570;BME280;2297;51.442;6.996;2024-01-30T01:05:32;101382.84;;;12.40;44.65
4570;BME280;2297;51.442;6.996;2024-01-30T01:07:59;101381.94;;;12.43;44.66
4570;BME280;2297;51.442;6.996;2024-01-30T01:10:27;101383.72;;;12.42;44.68
4570;BME280;2297;51.442;6.996;2024-01-30T01:12:54;101386.25;;;12.52;44.70
4570;BME280;2297;51.442;6.996;2024-01-30T01:15:21;101385.44;;;12.46;44.62
4570;BME280;2297;51.442;6.996;2024-01-30T01:17:47;101389.84;;;12.44;44.63
4570;BME280;2297;51.442;6.996;2024-01-30T01:20:14;101391.78;;;12.30;44.97
4570;BME280;2297;51.442;6.996;2024-01-30T01:22:41;101387.28;;;12.38;44.78
4570;BME280;2297;51.442;6.996;2024-01-30T01:25:08;101382.78;;;12.43;44.67
4570;BME280;2297;51.442;6.996;2024-01-30T01:27:37;101389.75;;;12.54;44.40
4570;BME280;2297;51.442;6.996;2024-01-30T01:30:08;101381.94;;;12.41;44.65
4570;BME280;2297;51.442;6.996;2024-01-30T01:32:36;101390.75;;;12.42;44.73
4570;BME280;2297;51.442;6.996;2024-01-30T01:35:04;101386.41;;;12.36;44.79
4570;BME280;2297;51.442;6.996;2024-01-30T01:37:31;101381.94;;;12.41;44.42
4570;BME280;2297;51.442;6.996;2024-01-30T01:39:58;101379.25;;;12.44;44.74
4570;BME280;2297;51.442;6.996;2024-01-30T01:42:25;101382.78;;;12.43;44.53
4570;BME280;2297;51.442;6.996;2024-01-30T01:44:53;101373.81;;;12.55;44.28
4570;BME280;2297;51.442;6.996;2024-01-30T01:47:19;101377.50;;;12.45;44.75
4570;BME280;2297;51.442;6.996;2024-01-30T01:49:47;101369.53;;;12.46;44.64
4570;BME280;2297;51.442;6.996;2024-01-30T01:52:13;101375.00;;;12.31;44.87
4570;BME280;2297;51.442;6.996;2024-01-30T01:54:40;101371.34;;;12.41;44.74
4570;BME280;2297;51.442;6.996;2024-01-30T01:57:07;101370.63;;;12.27;45.07
4570;BME280;2297;51.442;6.996;2024-01-30T01:59:34;101373.66;;;11.87;46.28
4570;BME280;2297;51.442;6.996;2024-01-30T02:02:03;101369.91;;;12.09;45.73
4570;BME280;2297;51.442;6.996;2024-01-30T02:04:30;101375.09;;;12.22;45.28
4570;BME280;2297;51.442;6.996;2024-01-30T02:06:57;101364.34;;;12.34;45.01
4570;BME280;2297;51.442;6.996;2024-01-30T02:09:23;101368.97;;;12.20;45.29
4570;BME280;2297;51.442;6.996;2024-01-30T02:11:50;101354.78;;;12.24;45.00
4570;BME280;2297;51.442;6.996;2024-01-30T02:14:17;101359.16;;;12.28;44.99
4570;BME280;2297;51.442;6.996;2024-01-30T02:16:44;101358.25;;;12.27;45.08
4570;BME280;2297;51.442;6.996;2024-01-30T02:19:12;101360.81;;;12.35;44.81
4570;BME280;2297;51.442;6.996;2024-01-30T02:21:40;101352.06;;;12.28;45.19
4570;BME280;2297;51.442;6.996;2024-01-30T02:24:06;101349.53;;;12.16;45.57
4570;BME280;2297;51.442;6.996;2024-01-30T02:26:33;101353.94;;;12.15;45.22
4570;BME280;2297;51.442;6.996;2024-01-30T02:29:00;101349.63;;;12.08;45.37
4570;BME280;2297;51.442;6.996;2024-01-30T02:31:26;101351.28;;;12.19;45.30
4570;BME280;2297;51.442;6.996;2024-01-30T02:33:53;101348.63;;;12.20;45.45
4570;BME280;2297;51.442;6.996;2024-01-30T02:36:19;101345.06;;;12.23;45.20
4570;BME280;2297;51.442;6.996;2024-01-30T02:38:48;101340.66;;;12.22;45.40
4570;BME280;2297;51.442;6.996;2024-01-30T02:41:14;101340.66;;;12.22;45.30
4570;BME280;2297;51.442;6.996;2024-01-30T02:43:41;101333.69;;;12.11;45.58
4570;BME280;2297;51.442;6.996;2024-01-30T02:46:07;101338.13;;;12.11;45.41
4570;BME280;2297;51.442;6.996;2024-01-30T02:48:34;101329.25;;;12.15;45.41
4570;BME280;2297;51.442;6.996;2024-01-30T02:51:00;101331.03;;;12.14;45.33
4570;BME280;2297;51.442;6.996;2024-01-30T02:53:27;101324.78;;;12.22;45.37
4570;BME280;2297;51.442;6.996;2024-01-30T02:55:55;101321.25;;;12.23;45.20
4570;BME280;2297;51.442;6.996;2024-01-30T02:58:22;101330.09;;;12.19;45.41
4570;BME280;2297;51.442;6.996;2024-01-30T03:00:48;101328.28;;;12.25;45.13
4570;BME280;2297;51.442;6.996;2024-01-30T03:03:15;101319.31;;;12.34;45.08
4570;BME280;2297;51.442;6.996;2024-01-30T03:05:41;101318.59;;;12.18;45.34
4570;BME280;2297;51.442;6.996;2024-01-30T03:08:08;101313.28;;;12.24;45.33
4570;BME280;2297;51.442;6.996;2024-01-30T03:10:35;101310.66;;;12.23;45.06
4570;BME280;2297;51.442;6.996;2024-01-30T03:13:03;101308.75;;;12.36;44.86
4570;BME280;2297;51.442;6.996;2024-01-30T03:15:30;101312.31;;;12.30;44.82
4570;BME280;2297;51.442;6.996;2024-01-30T03:17:56;101308.78;;;12.31;44.97
4570;BME280;2297;51.442;6.996;2024-01-30T03:20:23;101308.72;;;12.34;44.95
4570;BME280;2297;51.442;6.996;2024-01-30T03:22:50;101312.44;;;12.22;45.01
4570;BME280;2297;51.442;6.996;2024-01-30T03:25:16;101314.25;;;12.12;45.42
4570;BME280;2297;51.442;6.996;2024-01-30T03:27:43;101306.19;;;12.25;45.29
4570;BME280;2297;51.442;6.996;2024-01-30T03:30:11;101307.03;;;12.30;44.96
4570;BME280;2297;51.442;6.996;2024-01-30T03:32:38;101312.31;;;12.33;44.91
4570;BME280;2297;51.442;6.996;2024-01-30T03:35:05;101310.72;;;12.13;45.34
4570;BME280;2297;51.442;6.996;2024-01-30T03:37:32;101309.97;;;12.01;45.70
4570;BME280;2297;51.442;6.996;2024-01-30T03:39:59;101306.25;;;12.20;45.18
4570;BME280;2297;51.442;6.996;2024-01-30T03:42:25;101307.28;;;12.05;45.40
4570;BME280;2297;51.442;6.996;2024-01-30T03:44:52;101301.84;;;12.18;45.10
4570;BME280;2297;51.442;6.996;2024-01-30T03:47:21;101301.81;;;12.24;45.07
4570;BME280;2297;51.442;6.996;2024-01-30T03:49:48;101302.88;;;12.06;45.62
4570;BME280;2297;51.442;6.996;2024-01-30T03:52:14;101293.22;;;12.02;45.82
4570;BME280;2297;51.442;6.996;2024-01-30T03:54:41;101297.53;;;12.09;45.65
4570;BME280;2297;51.442;6.996;2024-01-30T03:57:08;101298.44;;;12.06;45.61
4570;BME280;2297;51.442;6.996;2024-01-30T03:59:34;101295.66;;;12.19;45.32
4570;BME280;2297;51.442;6.996;2024-01-30T04:02:01;101295.00;;;11.98;45.69
4570;BME280;2297;51.442;6.996;2024-01-30T04:04:29;101287.69;;;12.22;45.15
4570;BME280;2297;51.442;6.996;2024-01-30T04:06:56;101286.94;;;12.09;45.41
4570;BME280;2297;51.442;6.996;2024-01-30T04:09:22;101285.97;;;12.18;45.49
4570;BME280;2297;51.442;6.996;2024-01-30T04:11:49;101286.31;;;11.87;46.33
4570;BME280;2297;51.442;6.996;2024-01-30T04:14:15;101286.38;;;11.80;46.01
4570;BME280;2297;51.442;6.996;2024-01-30T04:16:42;101277.13;;;12.19;45.44
4570;BME280;2297;51.442;6.996;2024-01-30T04:19:09;101273.72;;;12.07;45.48
4570;BME280;2297;51.442;6.996;2024-01-30T04:21:37;101278.94;;;12.13;45.33
4570;BME280;2297;51.442;6.996;2024-01-30T04:24:04;101269.31;;;12.08;45.61
4570;BME280;2297;51.442;6.996;2024-01-30T04:26:31;101269.34;;;12.05;45.66
4570;BME280;2297;51.442;6.996;2024-01-30T04:28:57;101257.94;;;11.98;45.70
4570;BME280;2297;51.442;6.996;2024-01-30T04:31:24;101266.88;;;11.91;45.89
4570;BME280;2297;51.442;6.996;2024-01-30T04:33:50;101261.31;;;12.12;45.48
4570;BME280;2297;51.442;6.996;2024-01-30T04:36:17;101263.63;;;11.64;46.69
4570;BME280;2297;51.442;6.996;2024-01-30T04:38:45;101258.03;;;11.92;45.85
4570;BME280;2297;51.442;6.996;2024-01-30T04:41:12;101260.28;;;11.43;46.97
4570;BME280;2297;51.442;6.996;2024-01-30T04:43:38;101266.06;;;11.84;46.12
4570;BME280;2297;51.442;6.996;2024-01-30T04:46:05;101271.34;;;11.84;46.35
4570;BME280;2297;51.442;6.996;2024-01-30T04:48:32;101276.69;;;11.78;46.17
4570;BME280;2297;51.442;6.996;2024-01-30T04:50:58;101275.84;;;11.77;46.59
4570;BME280;2297;51.442;6.996;2024-01-30T04:53:29;101265.31;;;11.71;46.43
4570;BME280;2297;51.442;6.996;2024-01-30T04:55:57;101264.34;;;11.77;46.22
4570;BME280;2297;51.442;6.996;2024-01-30T04:58:23;101261.81;;;11.66;46.78
4570;BME280;2297;51.442;6.996;2024-01-30T05:00:50;101270.41;;;11.88;46.37
4570;BME280;2297;51.442;6.996;2024-01-30T05:03:17;101273.94;;;11.89;45.97
4570;BME280;2297;51.442;6.996;2024-01-30T05:05:44;101272.47;;;11.60;46.55
4570;BME280;2297;51.442;6.996;2024-01-30T05:08:10;101270.47;;;11.82;46.21
4570;BME280;2297;51.442;6.996;2024-01-30T05:10:37;101262.00;;;11.47;46.93
4570;BME280;2297;51.442;6.996;2024-01-30T05:13:05;101266.38;;;11.55;46.67
4570;BME280;2297;51.442;6.996;2024-01-30T05:15:31;101269.91;;;11.51;46.74
4570;BME280;2297;51.442;6.996;2024-01-30T05:17:58;101267.81;;;11.85;46.03
4570;BME280;2297;51.442;6.996;2024-01-30T05:20:25;101267.94;;;11.73;46.24
4570;BME280;2297;51.442;6.996;2024-01-30T05:22:53;101260.25;;;11.50;46.90
4570;BME280;2297;51.442;6.996;2024-01-30T05:25:20;101258.38;;;11.58;46.59
4570;BME280;2297;51.442;6.996;2024-01-30T05:27:46;101259.44;;;11.40;47.33
4570;BME280;2297;51.442;6.996;2024-01-30T05:30:14;101258.41;;;11.56;46.96
4570;BME280;2297;51.442;6.996;2024-01-30T05:32:41;101263.53;;;11.70;46.59
4570;BME280;2297;51.442;6.996;2024-01-30T05:35:08;101262.69;;;11.70;46.72
4570;BME280;2297;51.442;6.996;2024-01-30T05:37:34;101254.00;;;11.55;47.07
4570;BME280;2297;51.442;6.996;2024-01-30T05:40:01;101261.41;;;11.18;47.68
4570;BME280;2297;51.442;6.996;2024-01-30T05:42:28;101266.41;;;11.50;47.14
4570;BME280;2297;51.442;6.996;2024-01-30T05:44:54;101260.34;;;11.37;47.25
4570;BME280;2297;51.442;6.996;2024-01-30T05:47:22;101259.41;;;11.43;47.33
4570;BME280;2297;51.442;6.996;2024-01-30T05:49:49;101253.28;;;11.39;47.60
4570;BME280;2297;51.442;6.996;2024-01-30T05:52:16;101248.72;;;11.55;47.31
4570;BME280;2297;51.442;6.996;2024-01-30T05:54:44;101262.94;;;11.42;47.53
4570;BME280;2297;51.442;6.996;2024-01-30T05:57:10;101258.53;;;11.42;47.65
4570;BME280;2297;51.442;6.996;2024-01-30T05:59:37;101250.63;;;11.39;47.40
4570;BME280;2297;51.442;6.996;2024-01-30T06:02:03;101254.25;;;11.27;47.88
4570;BME280;2297;51.442;6.996;2024-01-30T06:04:31;101244.38;;;11.46;47.15
4570;BME280;2297;51.442;6.996;2024-01-30T06:06:58;101254.03;;;11.54;47.39
4570;BME280;2297;51.442;6.996;2024-01-30T06:09:27;101256.88;;;11.29;47.42
4570;BME280;2297;51.442;6.996;2024-01-30T06:11:53;101251.78;;;11.03;48.68
4570;BME280;2297;51.442;6.996;2024-01-30T06:14:20;101252.56;;;11.19;48.40
4570;BME280;2297;51.442;6.996;2024-01-30T06:16:46;101253.44;;;11.21;48.34
4570;BME280;2297;51.442;6.996;2024-01-30T06:19:13;101271.91;;;11.24;48.31
4570;BME280;2297;51.442;6.996;2024-01-30T06:21:41;101246.19;;;11.41;48.00
4570;BME280;2297;51.442;6.996;2024-01-30T06:24:08;101249.66;;;11.50;47.61
4570;BME280;2297;51.442;6.996;2024-01-30T06:26:34;101251.50;;;11.38;47.92
4570;BME280;2297;51.442;6.996;2024-01-30T06:29:01;101255.28;;;11.12;48.56
4570;BME280;2297;51.442;6.996;2024-01-30T06:31:27;101247.09;;;11.42;47.70
4570;BME280;2297;51.442;6.996;2024-01-30T06:33:54;101246.09;;;11.51;47.56
4570;BME280;2297;51.442;6.996;2024-01-30T06:36:21;101256.91;;;11.26;48.33
4570;BME280;2297;51.442;6.996;2024-01-30T06:38:49;101251.47;;;11.44;47.91
4570;BME280;2297;51.442;6.996;2024-01-30T06:41:15;101252.31;;;11.48;47.59
4570;BME280;2297;51.442;6.996;2024-01-30T06:43:42;101249.44;;;11.71;47.00
4570;BME280;2297;51.442;6.996;2024-01-30T06:46:10;101248.81;;;11.44;47.60
4570;BME280;2297;51.442;6.996;2024-01-30T06:48:37;101242.66;;;11.45;48.09
4570;BME280;2297;51.442;6.996;2024-01-30T06:51:05;101253.88;;;11.66;47.32
4570;BME280;2297;51.442;6.996;2024-01-30T06:53:32;101254.66;;;11.74;47.07
4570;BME280;2297;51.442;6.996;2024-01-30T06:56:00;101252.91;;;11.76;47.07
4570;BME280;2297;51.442;6.996;2024-01-30T06:58:27;101245.97;;;11.64;47.32
4570;BME280;2297;51.442;6.996;2024-01-30T07:00:54;101252.75;;;11.89;47.04
4570;BME280;2297;51.442;6.996;2024-01-30T07:03:20;101250.03;;;11.96;46.87
4570;BME280;2297;51.442;6.996;2024-01-30T07:05:47;101258.25;;;11.73;47.13
4570;BME280;2297;51.442;6.996;2024-01-30T07:08:14;101259.28;;;11.57;47.77
4570;BME280;2297;51.442;6.996;2024-01-30T07:10:42;101258.19;;;11.76;47.39
4570;BME280;2297;51.442;6.996;2024-01-30T07:13:10;101256.59;;;11.60;47.84
4570;BME280;2297;51.442;6.996;2024-01-30T07:15:37;101261.16;;;11.45;48.23
4570;BME280;2297;51.442;6.996;2024-01-30T07:18:05;101273.38;;;11.59;47.95
4570;BME280;2297;51.442;6.996;2024-01-30T07:20:32;101274.09;;;11.72;47.82
4570;BME280;2297;51.442;6.996;2024-01-30T07:22:58;101275.72;;;11.88;47.13
4570;BME280;2297;51.442;6.996;2024-01-30T07:25:25;101274.91;;;11.81;47.28
4570;BME280;2297;51.442;6.996;2024-01-30T07:27:54;101276.81;;;11.67;47.76
4570;BME280;2297;51.442;6.996;2024-01-30T07:30:22;101272.59;;;11.47;48.42
4570;BME280;2297;51.442;6.996;2024-01-30T07:32:48;101277.66;;;11.69;47.77
4570;BME280;2297;51.442;6.996;2024-01-30T07:35:15;101278.28;;;11.93;47.43
4570;BME280;2297;51.442;6.996;2024-01-30T07:37:42;101282.63;;;12.00;47.00
4570;BME280;2297;51.442;6.996;2024-01-30T07:40:09;101280.13;;;11.89;47.28
4570;BME280;2297;51.442;6.996;2024-01-30T07:42:36;101280.00;;;11.98;47.02
4570;BME280;2297;51.442;6.996;2024-01-30T07:45:03;101282.84;;;11.78;47.56
4570;BME280;2297;51.442;6.996;2024-01-30T07:47:31;101272.31;;;11.75;47.74
4570;BME280;2297;51.442;6.996;2024-01-30T07:49:58;101282.84;;;11.78;47.96
4570;BME280;2297;51.442;6.996;2024-01-30T07:52:24;101285.44;;;11.85;47.56
4570;BME280;2297;51.442;6.996;2024-01-30T07:54:51;101297.66;;;11.96;47.05
4570;BME280;2297;51.442;6.996;2024-01-30T07:57:18;101291.66;;;11.80;47.38
4570;BME280;2297;51.442;6.996;2024-01-30T07:59:44;101307.69;;;11.68;47.99
4570;BME280;2297;51.442;6.996;2024-01-30T08:02:11;101302.16;;;11.90;47.40
4570;BME280;2297;51.442;6.996;2024-01-30T08:04:40;101302.25;;;11.80;47.82
4570;BME280;2297;51.442;6.996;2024-01-30T08:07:06;101300.38;;;11.92;47.45
4570;BME280;2297;51.442;6.996;2024-01-30T08:09:33;101309.22;;;11.88;47.58
4570;BME280;2297;51.442;6.996;2024-01-30T08:12:00;101305.88;;;11.70;47.74
4570;BME280;2297;51.442;6.996;2024-01-30T08:14:26;101307.50;;;11.84;47.52
4570;BME280;2297;51.442;6.996;2024-01-30T08:16:53;101307.34;;;11.99;47.44
4570;BME280;2297;51.442;6.996;2024-01-30T08:19:20;101306.59;;;11.89;47.79
4570;BME280;2297;51.442;6.996;2024-01-30T08:21:48;101312.44;;;12.18;46.98
4570;BME280;2297;51.442;6.996;2024-01-30T08:24:15;101317.31;;;11.74;48.09
4570;BME280;2297;51.442;6.996;2024-01-30T08:26:42;101318.25;;;11.70;48.43
4570;BME280;2297;51.442;6.996;2024-01-30T08:29:08;101312.69;;;11.96;47.75
4570;BME280;2297;51.442;6.996;2024-01-30T08:31:35;101314.50;;;11.91;47.80
4570;BME280;2297;51.442;6.996;2024-01-30T08:34:02;101317.94;;;11.99;47.59
4570;BME280;2297;51.442;6.996;2024-01-30T08:36:29;101316.16;;;12.01;47.68
4570;BME280;2297;51.442;6.996;2024-01-30T08:38:57;101317.09;;;11.94;47.86
4570;BME280;2297;51.442;6.996;2024-01-30T08:41:23;101318.72;;;12.10;47.41
4570;BME280;2297;51.442;6.996;2024-01-30T08:43:52;101329.47;;;11.93;47.94
4570;BME280;2297;51.442;6.996;2024-01-30T08:46:19;101335.59;;;12.00;47.81
4570;BME280;2297;51.442;6.996;2024-01-30T08:48:46;101329.38;;;12.04;47.90
4570;BME280;2297;51.442;6.996;2024-01-30T08:51:14;101325.97;;;11.91;47.77
4570;BME280;2297;51.442;6.996;2024-01-30T08:53:40;101326.81;;;11.95;48.20
4570;BME280;2297;51.442;6.996;2024-01-30T08:56:08;101326.13;;;11.74;48.82
4570;BME280;2297;51.442;6.996;2024-01-30T08:58:35;101321.31;;;12.13;47.53
4570;BME280;2297;51.442;6.996;2024-01-30T09:01:02;101337.13;;;12.23;47.47
4570;BME280;2297;51.442;6.996;2024-01-30T09:03:30;101344.56;;;11.84;48.59
4570;BME280;2297;51.442;6.996;2024-01-30T09:05:57;101332.38;;;11.67;48.72
4570;BME280;2297;51.442;6.996;2024-01-30T09:08:24;101339.13;;;11.99;48.28
4570;BME280;2297;51.442;6.996;2024-01-30T09:10:50;101337.22;;;12.12;47.96
4570;BME280;2297;51.442;6.996;2024-01-30T09:13:18;101340.59;;;12.28;47.52
4570;BME280;2297;51.442;6.996;2024-01-30T09:15:45;101344.28;;;12.11;47.93
4570;BME280;2297;51.442;6.996;2024-01-30T09:18:12;101347.69;;;12.26;47.73
4570;BME280;2297;51.442;6.996;2024-01-30T09:20:38;101358.34;;;12.17;47.53
4570;BME280;2297;51.442;6.996;2024-01-30T09:23:05;101358.31;;;12.23;47.46
4570;BME280;2297;51.442;6.996;2024-01-30T09:25:32;101374.31;;;12.10;48.03
4570;BME280;2297;51.442;6.996;2024-01-30T09:27:59;101365.53;;;12.05;48.09
4570;BME280;2297;51.442;6.996;2024-01-30T09:30:27;101363.91;;;11.92;48.37
4570;BME280;2297;51.442;6.996;2024-01-30T09:32:54;101362.06;;;11.97;48.10
4570;BME280;2297;51.442;6.996;2024-01-30T09:35:21;101362.84;;;12.10;47.63
4570;BME280;2297;51.442;6.996;2024-01-30T09:37:47;101364.13;;;12.53;47.20
4570;BME280;2297;51.442;6.996;2024-01-30T09:40:14;101359.88;;;12.41;47.32
4570;BME280;2297;51.442;6.996;2024-01-30T09:42:46;101354.78;;;12.21;47.74
4570;BME280;2297;51.442;6.996;2024-01-30T09:45:14;101346.94;;;12.13;47.73
4570;BME280;2297;51.442;6.996;2024-01-30T09:47:44;101353.06;;;12.15;47.66
4570;BME280;2297;51.442;6.996;2024-01-30T09:50:12;101354.63;;;12.36;47.24
4570;BME280;2297;51.442;6.996;2024-01-30T09:52:39;101352.66;;;12.54;46.76
4570;BME280;2297;51.442;6.996;2024-01-30T09:55:07;101357.09;;;12.50;47.12
4570;BME280;2297;51.442;6.996;2024-01-30T09:57:34;101351.56;;;12.70;46.39
4570;BME280;2297;51.442;6.996;2024-01-30T10:00:01;101356.31;;;12.42;47.11
4570;BME280;2297;51.442;6.996;2024-01-30T10:02:28;101352.75;;;12.47;47.14
4570;BME280;2297;51.442;6.996;2024-01-30T10:04:56;101357.56;;;12.85;46.15
4570;BME280;2297;51.442;6.996;2024-01-30T10:07:22;101348.81;;;12.76;46.55
4570;BME280;2297;51.442;6.996;2024-01-30T10:09:49;101355.81;;;12.80;46.36
4570;BME280;2297;51.442;6.996;2024-01-30T10:12:16;101348.78;;;12.79;46.60
4570;BME280;2297;51.442;6.996;2024-01-30T10:14:43;101346.81;;;12.92;45.85
4570;BME280;2297;51.442;6.996;2024-01-30T10:17:10;101342.69;;;12.74;46.61
4570;BME280;2297;51.442;6.996;2024-01-30T10:19:37;101343.50;;;12.76;46.47
4570;BME280;2297;51.442;6.996;2024-01-30T10:22:05;101344.66;;;13.21;45.39
4570;BME280;2297;51.442;6.996;2024-01-30T10:24:33;101346.03;;;12.89;46.32
4570;BME280;2297;51.442;6.996;2024-01-30T10:27:00;101331.78;;;12.94;46.14
4570;BME280;2297;51.442;6.996;2024-01-30T10:29:27;101343.16;;;13.03;45.95
4570;BME280;2297;51.442;6.996;2024-01-30T10:31:58;101347.31;;;13.22;45.83
4570;BME280;2297;51.442;6.996;2024-01-30T10:34:25;101351.72;;;13.22;45.73
4570;BME280;2297;51.442;6.996;2024-01-30T10:36:59;101356.09;;;13.24;45.71
4570;BME280;2297;51.442;6.996;2024-01-30T10:39:29;101356.81;;;13.37;45.49
4570;BME280;2297;51.442;6.996;2024-01-30T10:42:00;101360.50;;;13.27;45.71
4570;BME280;2297;51.442;6.996;2024-01-30T10:44:33;101363.50;;;13.02;46.07
4570;BME280;2297;51.442;6.996;2024-01-30T10:47:06;101361.50;;;13.18;45.86
4570;BME280;2297;51.442;6.996;2024-01-30T10:49:34;101365.84;;;13.24;45.94
4570;BME280;2297;51.442;6.996;2024-01-30T10:52:03;101364.75;;;13.37;45.30
4570;BME280;2297;51.442;6.996;2024-01-30T10:54:31;101367.19;;;13.53;44.95
4570;BME280;2297;51.442;6.996;2024-01-30T10:57:01;101369.69;;;13.01;46.24
4570;BME280;2297;51.442;6.996;2024-01-30T10:59:29;101381.56;;;13.36;45.46
4570;BME280;2297;51.442;6.996;2024-01-30T11:01:57;101366.22;;;13.57;45.38
4570;BME280;2297;51.442;6.996;2024-01-30T11:04:24;101382.28;;;13.47;45.54
4570;BME280;2297;51.442;6.996;2024-01-30T11:06:51;101372.16;;;13.13;46.36
4570;BME280;2297;51.442;6.996;2024-01-30T11:09:18;101369.22;;;13.35;45.73
4570;BME280;2297;51.442;6.996;2024-01-30T11:11:51;101368.78;;;13.63;45.31
4570;BME280;2297;51.442;6.996;2024-01-30T11:14:23;101359.72;;;13.17;46.83
4570;BME280;2297;51.442;6.996;2024-01-30T11:16:51;101370.88;;;13.42;45.99
4570;BME280;2297;51.442;6.996;2024-01-30T11:19:22;101367.47;;;13.34;46.55
4570;BME280;2297;51.442;6.996;2024-01-30T11:21:50;101369.41;;;13.76;45.17
4570;BME280;2297;51.442;6.996;2024-01-30T11:24:19;101364.72;;;13.92;45.08
4570;BME280;2297;51.442;6.996;2024-01-30T11:26:48;101358.16;;;13.63;45.90
4570;BME280;2297;51.442;6.996;2024-01-30T11:29:16;101356.63;;;13.50;46.38
4570;BME280;2297;51.442;6.996;2024-01-30T11:31:51;101366.69;;;13.80;45.50
4570;BME280;2297;51.442;6.996;2024-01-30T11:34:18;101370.97;;;13.88;45.45
4570;BME280;2297;51.442;6.996;2024-01-30T11:36:51;101379.75;;;13.40;45.90
4570;BME280;2297;51.442;6.996;2024-01-30T11:39:20;101383.44;;;13.31;46.61
4570;BME280;2297;51.442;6.996;2024-01-30T11:41:48;101376.59;;;13.72;46.04
4570;BME280;2297;51.442;6.996;2024-01-30T11:44:18;101371.06;;;13.85;45.83
4570;BME280;2297;51.442;6.996;2024-01-30T11:46:46;101372.16;;;13.71;46.18
4570;BME280;2297;51.442;6.996;2024-01-30T11:49:13;101376.44;;;13.82;45.79
4570;BME280;2297;51.442;6.996;2024-01-30T11:51:40;101385.69;;;14.07;45.37
4570;BME280;2297;51.442;6.996;2024-01-30T11:54:07;101380.72;;;13.89;45.92
4570;BME280;2297;51.442;6.996;2024-01-30T11:56:33;101379.94;;;13.82;45.99
4570;BME280;2297;51.442;6.996;2024-01-30T11:59:01;101378.41;;;13.69;46.45
4570;BME280;2297;51.442;6.996;2024-01-30T12:01:29;101389.00;;;13.09;47.85
4570;BME280;2297;51.442;6.996;2024-01-30T12:03:56;101393.22;;;13.27;47.81
4570;BME280;2297;51.442;6.996;2024-01-30T12:06:23;101395.75;;;13.35;47.96
4570;BME280;2297;51.442;6.996;2024-01-30T12:08:57;101384.59;;;13.69;46.95
4570;BME280;2297;51.442;6.996;2024-01-30T12:11:24;101385.53;;;13.65;46.98
4570;BME280;2297;51.442;6.996;2024-01-30T12:13:51;101385.19;;;13.85;46.36
4570;BME280;2297;51.442;6.996;2024-01-30T12:16:18;101385.09;;;13.38;48.01
4570;BME280;2297;51.442;6.996;2024-01-30T12:18:46;101391.25;;;13.40;48.16
4570;BME280;2297;51.442;6.996;2024-01-30T12:21:16;101377.78;;;13.53;48.04
4570;BME280;2297;51.442;6.996;2024-01-30T12:23:42;101382.25;;;13.49;48.31
4570;BME280;2297;51.442;6.996;2024-01-30T12:26:11;101374.47;;;13.38;48.96
4570;BME280;2297;51.442;6.996;2024-01-30T12:28:47;101379.84;;;13.35;49.20
4570;BME280;2297;51.442;6.996;2024-01-30T12:31:14;101376.09;;;13.49;48.83
4570;BME280;2297;51.442;6.996;2024-01-30T12:33:41;101372.41;;;13.59;48.82
4570;BME280;2297;51.442;6.996;2024-01-30T12:36:09;101377.38;;;13.77;48.36
4570;BME280;2297;51.442;6.996;2024-01-30T12:38:36;101381.56;;;13.36;49.39
4570;BME280;2297;51.442;6.996;2024-01-30T12:41:02;101383.63;;;13.16;50.07
4570;BME280;2297;51.442;6.996;2024-01-30T12:43:30;101380.03;;;13.76;48.77
4570;BME280;2297;51.442;6.996;2024-01-30T12:45:56;101377.72;;;13.56;48.91
4570;BME280;2297;51.442;6.996;2024-01-30T12:48:23;101373.16;;;13.64;48.88
4570;BME280;2297;51.442;6.996;2024-01-30T12:50:50;101365.41;;;13.52;49.26
4570;BME280;2297;51.442;6.996;2024-01-30T12:53:18;101369.78;;;13.54;49.31
4570;BME280;2297;51.442;6.996;2024-01-30T12:55:45;101372.94;;;13.78;48.60
4570;BME280;2297;51.442;6.996;2024-01-30T12:58:12;101374.59;;;13.84;48.62
4570;BME280;2297;51.442;6.996;2024-01-30T13:00:38;101373.81;;;13.78;48.81
4570;BME280;2297;51.442;6.996;2024-01-30T13:03:05;101375.47;;;13.86;48.71
4570;BME280;2297;51.442;6.996;2024-01-30T13:05:33;101377.00;;;13.99;48.40
4570;BME280;2297;51.442;6.996;2024-01-30T13:08:00;101382.72;;;13.74;48.82
4570;BME280;2297;51.442;6.996;2024-01-30T13:10:28;101382.09;;;13.60;49.36